createdAt,value
2022-08-01T00:01:19.222Z,1.63
2022-08-01T00:06:17.530Z,1.40
2022-08-01T00:11:15.984Z,1.70
2022-08-01T00:16:14.290Z,1.85
2022-08-01T00:21:13.997Z,1.13
2022-08-01T00:26:12.271Z,1.50
2022-08-01T00:31:10.640Z,1.42
2022-08-01T00:36:09.087Z,1.52
2022-08-01T00:41:08.745Z,1.23
2022-08-01T00:46:07.019Z,1.63
2022-08-01T00:51:05.990Z,1.52
2022-08-01T00:56:04.300Z,1.42
2022-08-01T01:01:04.012Z,1.35
2022-08-01T01:06:10.012Z,1.80
2022-08-01T01:11:12.742Z,1.50
2022-08-01T01:16:14.008Z,1.50
2022-08-01T01:21:16.415Z,1.08
2022-08-01T01:26:31.079Z,1.27
2022-08-01T01:31:31.614Z,1.27
2022-08-01T01:36:31.093Z,1.33
2022-08-01T01:41:30.098Z,1.48
2022-08-01T01:46:29.688Z,1.15
2022-08-01T01:51:30.636Z,1.30
2022-08-01T01:56:29.965Z,1.20
2022-08-01T02:01:58.135Z,1.35
2022-08-01T02:06:52.765Z,1.73
2022-08-01T02:12:07.429Z,1.58
2022-08-01T02:17:06.799Z,1.55
2022-08-01T02:22:07.567Z,1.50
2022-08-01T02:27:08.908Z,1.42
2022-08-01T02:32:08.784Z,1.73
2022-08-01T02:37:08.824Z,1.70
2022-08-01T02:42:08.723Z,2.20
2022-08-01T02:47:07.570Z,1.70
2022-08-01T02:52:08.007Z,1.70
2022-08-01T02:57:08.866Z,1.60
2022-08-01T03:02:11.959Z,1.75
2022-08-01T03:07:12.633Z,2.70
2022-08-01T03:12:13.740Z,1.83
2022-08-01T03:17:12.592Z,1.65
2022-08-01T03:22:13.721Z,2.25
2022-08-01T03:27:14.103Z,1.50
2022-08-01T03:32:13.439Z,2.00
2022-08-01T03:37:14.079Z,1.88
2022-08-01T03:42:16.386Z,2.35
2022-08-01T03:47:15.747Z,2.13
2022-08-01T03:52:14.760Z,1.90
2022-08-01T03:57:34.974Z,1.60
2022-08-01T04:02:33.213Z,2.15
2022-08-01T04:07:32.853Z,1.83
2022-08-01T04:12:33.759Z,1.90
2022-08-01T04:17:32.069Z,2.60
2022-08-01T04:22:31.661Z,2.60
2022-08-01T04:27:48.463Z,1.90
2022-08-01T04:32:50.995Z,3.10
2022-08-01T04:37:52.148Z,2.30
2022-08-01T04:42:52.099Z,2.28
2022-08-01T04:47:51.553Z,2.05
2022-08-01T04:52:50.154Z,2.22
2022-08-01T04:57:49.025Z,2.70
2022-08-01T05:02:48.636Z,2.33
2022-08-01T05:07:46.861Z,2.65
2022-08-01T05:12:45.181Z,2.47
2022-08-01T05:17:43.894Z,2.85
2022-08-01T05:22:43.826Z,3.15
2022-08-01T05:27:42.174Z,3.47
2022-08-01T05:32:40.497Z,2.60
2022-08-01T05:37:38.787Z,2.17
2022-08-01T05:42:38.943Z,2.38
2022-08-01T05:47:37.351Z,2.10
2022-08-01T05:52:41.536Z,1.77
2022-08-01T05:57:41.201Z,1.98
2022-08-01T06:02:42.233Z,2.08
2022-08-01T06:07:40.842Z,1.80
2022-08-01T06:12:39.296Z,1.80
2022-08-01T06:17:40.148Z,1.90
2022-08-01T06:22:38.446Z,2.45
2022-08-01T06:27:36.792Z,1.85
2022-08-01T06:32:35.170Z,3.55
2022-08-01T06:37:34.899Z,2.92
2022-08-01T06:42:36.544Z,1.83
2022-08-01T06:47:35.055Z,2.47
2022-08-01T06:52:35.053Z,2.13
2022-08-01T06:57:33.943Z,1.77
2022-08-01T07:02:32.305Z,1.90
2022-08-01T07:07:30.705Z,1.67
2022-08-01T07:12:30.390Z,2.30
2022-08-01T07:17:28.727Z,1.98
2022-08-01T07:22:27.085Z,2.70
2022-08-01T07:27:26.230Z,2.60
2022-08-01T07:32:26.040Z,3.55
2022-08-01T07:37:48.157Z,2.78
2022-08-01T07:42:50.508Z,2.90
2022-08-01T07:47:51.442Z,3.10
2022-08-01T07:52:49.732Z,4.50
2022-08-01T07:57:48.024Z,4.65
2022-08-01T08:02:46.591Z,5.60
2022-08-01T08:07:46.264Z,4.80
2022-08-01T08:12:44.543Z,5.40
2022-08-01T08:17:42.843Z,5.88
2022-08-01T08:22:50.022Z,4.85
2022-08-01T08:27:48.330Z,4.82
2022-08-01T08:32:46.883Z,5.13
2022-08-01T08:37:47.809Z,5.80
2022-08-01T08:42:49.804Z,4.32
2022-08-01T08:47:49.483Z,3.90
2022-08-01T08:52:49.209Z,4.10
2022-08-01T08:57:49.111Z,4.38
2022-08-01T09:02:50.128Z,4.43
2022-08-01T09:07:48.519Z,3.47
2022-08-01T09:13:01.637Z,3.75
2022-08-01T09:18:01.258Z,3.30
2022-08-01T09:22:59.560Z,2.30
2022-08-01T09:28:04.614Z,3.38
2022-08-01T09:33:11.512Z,3.00
2022-08-01T09:38:20.859Z,2.60
2022-08-01T09:43:19.270Z,2.30
2022-08-01T09:48:19.000Z,2.35
2022-08-01T09:53:29.370Z,2.67
2022-08-01T09:58:28.941Z,3.15
2022-08-01T10:03:30.720Z,2.60
2022-08-01T10:08:29.163Z,3.95
2022-08-01T10:13:27.519Z,3.63
2022-08-01T10:18:37.410Z,3.72
2022-08-01T10:23:40.443Z,4.15
2022-08-01T10:28:40.678Z,2.63
2022-08-01T10:33:51.199Z,3.50
2022-08-01T10:38:51.656Z,4.28
2022-08-01T10:43:49.935Z,4.20
2022-08-01T10:48:54.372Z,5.13
2022-08-01T10:53:54.264Z,4.75
2022-08-01T10:58:57.426Z,4.40
2022-08-01T11:04:03.031Z,4.05
2022-08-01T11:09:03.330Z,4.57
2022-08-01T11:14:08.157Z,3.63
2022-08-01T11:19:09.966Z,4.18
2022-08-01T11:24:16.637Z,4.10
2022-08-01T11:29:21.568Z,3.63
2022-08-01T11:34:22.549Z,3.23
2022-08-01T11:39:21.502Z,3.83
2022-08-01T11:44:21.282Z,2.25
2022-08-01T11:49:29.628Z,2.83
2022-08-01T11:54:35.120Z,2.90
2022-08-01T11:59:49.367Z,2.20
2022-08-01T12:05:02.074Z,1.92
2022-08-01T12:10:02.660Z,2.00
2022-08-01T12:15:01.725Z,1.88
2022-08-01T12:20:01.560Z,1.42
2022-08-01T12:25:07.414Z,1.42
2022-08-01T12:30:07.474Z,1.88
2022-08-01T12:35:08.040Z,1.80
2022-08-01T12:40:13.906Z,1.77
2022-08-01T12:45:14.872Z,1.75
2022-08-01T12:50:15.439Z,2.28
2022-08-01T12:55:18.531Z,2.33
2022-08-01T13:00:18.372Z,2.38
2022-08-01T13:05:18.396Z,2.00
2022-08-01T13:10:17.486Z,2.10
2022-08-01T13:15:23.162Z,1.70
2022-08-01T13:20:27.100Z,1.60
2022-08-01T13:25:27.545Z,1.90
2022-08-01T13:30:26.326Z,2.80
2022-08-01T13:35:24.707Z,2.45
2022-08-01T13:40:28.163Z,2.55
2022-08-01T13:45:26.772Z,2.90
2022-08-01T13:50:25.283Z,2.10
2022-08-01T13:55:23.674Z,1.90
2022-08-01T14:00:23.563Z,2.13
2022-08-01T14:05:21.971Z,1.88
2022-08-01T14:10:20.787Z,2.80
2022-08-01T14:15:38.547Z,2.95
2022-08-01T14:20:40.038Z,4.50
2022-08-01T14:26:02.698Z,3.45
2022-08-01T14:30:57.676Z,2.97
2022-08-01T14:36:01.683Z,2.85
2022-08-01T14:41:05.437Z,4.43
2022-08-01T14:46:04.671Z,1.83
2022-08-01T14:51:05.359Z,2.22
2022-08-01T14:56:03.891Z,2.80
2022-08-01T15:01:02.382Z,3.10
2022-08-01T15:06:00.877Z,1.77
2022-08-01T15:11:02.215Z,2.17
2022-08-01T15:16:00.719Z,1.92
2022-08-01T15:20:59.430Z,2.17
2022-08-01T15:25:57.850Z,2.20
2022-08-01T15:30:57.500Z,2.13
2022-08-01T15:35:56.157Z,2.85
2022-08-01T15:40:55.745Z,3.05
2022-08-01T15:45:54.336Z,3.25
2022-08-01T15:50:54.038Z,4.43
2022-08-01T15:55:52.919Z,4.07
2022-08-01T16:00:51.301Z,2.50
2022-08-01T16:05:50.629Z,4.15
2022-08-01T16:10:50.297Z,4.32
2022-08-01T16:15:48.594Z,2.65
2022-08-01T16:20:46.956Z,2.40
2022-08-01T16:25:45.673Z,3.47
2022-08-01T16:30:51.895Z,2.10
2022-08-01T16:36:03.910Z,2.50
2022-08-01T16:41:02.451Z,2.28
2022-08-01T16:46:02.068Z,2.30
2022-08-01T16:51:00.725Z,2.60
2022-08-01T16:55:59.241Z,2.63
2022-08-01T17:00:57.902Z,2.20
2022-08-01T17:06:17.558Z,2.40
2022-08-01T17:11:16.271Z,2.45
2022-08-01T17:16:14.562Z,2.55
2022-08-01T17:21:12.925Z,3.10
2022-08-01T17:26:13.049Z,2.92
2022-08-01T17:31:11.364Z,2.45
2022-08-01T17:36:09.742Z,3.00
2022-08-01T17:41:08.091Z,2.33
2022-08-01T17:46:08.305Z,3.15
2022-08-01T17:51:06.693Z,3.03
2022-08-01T17:56:06.013Z,3.53
2022-08-01T18:01:04.578Z,2.65
2022-08-01T18:06:04.330Z,2.65
2022-08-01T18:11:02.677Z,2.88
2022-08-01T18:16:01.158Z,3.10
2022-08-01T18:20:59.687Z,2.85
2022-08-01T18:26:04.075Z,2.70
2022-08-01T18:31:02.383Z,2.80
2022-08-01T18:36:01.930Z,3.13
2022-08-01T18:41:05.303Z,3.70
2022-08-01T18:46:05.456Z,3.17
2022-08-01T18:51:03.719Z,2.53
2022-08-01T18:56:12.029Z,3.38
2022-08-01T19:06:09.804Z,3.28
2022-08-01T19:11:09.460Z,2.85
2022-08-01T19:16:07.879Z,3.30
2022-08-01T19:21:07.073Z,3.83
2022-08-01T19:26:12.742Z,3.17
2022-08-01T19:31:13.213Z,3.65
2022-08-01T19:36:19.302Z,4.07
2022-08-01T19:41:18.204Z,3.20
2022-08-01T19:46:18.252Z,3.28
2022-08-01T19:51:17.299Z,3.53
2022-08-01T19:56:16.550Z,3.30
2022-08-01T20:01:15.633Z,2.88
2022-08-01T20:06:15.414Z,3.10
2022-08-01T20:11:15.974Z,2.92
2022-08-01T20:16:16.287Z,3.15
2022-08-01T20:21:16.733Z,3.05
2022-08-01T20:26:16.231Z,4.03
2022-08-01T20:31:14.661Z,2.85
2022-08-01T20:36:25.226Z,2.83
2022-08-01T20:41:26.084Z,3.35
2022-08-01T20:46:25.229Z,3.28
2022-08-01T20:51:25.341Z,2.80
2022-08-01T20:56:31.060Z,2.90
2022-08-01T21:01:30.634Z,3.30
2022-08-01T21:06:39.060Z,3.35
2022-08-01T21:11:44.258Z,3.30
2022-08-01T21:16:47.594Z,3.30
2022-08-01T21:21:52.195Z,4.20
2022-08-01T21:26:53.080Z,3.17
2022-08-01T21:32:11.646Z,3.03
2022-08-01T21:37:11.181Z,2.70
2022-08-01T21:42:16.716Z,3.00
2022-08-01T21:47:17.200Z,2.80
2022-08-01T21:52:21.847Z,3.53
2022-08-01T21:57:26.429Z,3.83
2022-08-01T22:02:26.722Z,4.20
2022-08-01T22:07:26.775Z,3.92
2022-08-01T22:12:27.349Z,4.30
2022-08-01T22:17:32.560Z,3.45
2022-08-01T22:22:51.116Z,3.42
2022-08-01T22:28:06.398Z,3.92
2022-08-01T22:33:16.680Z,3.80
2022-08-01T22:38:17.854Z,3.90
2022-08-01T22:43:19.703Z,3.33
2022-08-01T22:48:19.977Z,3.42
2022-08-01T22:53:22.726Z,3.35
2022-08-01T22:58:24.009Z,4.13
2022-08-01T23:03:25.869Z,4.03
2022-08-01T23:08:24.616Z,3.35
2022-08-01T23:13:24.463Z,3.47
2022-08-01T23:18:23.512Z,3.28
2022-08-01T23:23:30.675Z,3.28
2022-08-01T23:28:31.366Z,2.83
2022-08-01T23:33:29.661Z,3.70
2022-08-01T23:38:28.021Z,2.78
2022-08-01T23:43:26.297Z,2.95
2022-08-01T23:48:26.289Z,2.65
2022-08-01T23:53:24.611Z,2.80
2022-08-01T23:58:29.101Z,2.97
